createdAt,value
2023-05-23T00:00:23.695Z,9.38
2023-05-23T00:01:21.455Z,9.37
2023-05-23T00:02:18.049Z,9.36
2023-05-23T00:03:16.391Z,9.43
2023-05-23T00:04:18.982Z,9.47
2023-05-23T00:05:18.084Z,9.33
2023-05-23T00:06:14.862Z,9.39
2023-05-23T00:07:11.426Z,9.46
2023-05-23T00:08:08.177Z,9.48
2023-05-23T00:09:04.691Z,9.47
2023-05-23T00:10:01.211Z,9.49
2023-05-23T00:10:57.759Z,9.64
2023-05-23T00:11:54.317Z,9.57
2023-05-23T00:12:50.888Z,9.52
2023-05-23T00:13:47.774Z,9.37
2023-05-23T00:14:45.360Z,9.20
2023-05-23T00:15:42.416Z,9.23
2023-05-23T00:16:41.364Z,9.17
2023-05-23T00:17:38.434Z,9.13
2023-05-23T00:18:38.391Z,9.14
2023-05-23T00:19:36.619Z,9.38
2023-05-23T00:20:34.801Z,9.48
2023-05-23T00:21:33.101Z,9.53
2023-05-23T00:22:29.657Z,9.48
2023-05-23T00:23:26.332Z,9.43
2023-05-23T00:24:22.855Z,9.52
2023-05-23T00:25:22.181Z,9.82
2023-05-23T00:26:18.771Z,9.73
2023-05-23T00:27:15.364Z,9.66
2023-05-23T00:28:11.893Z,9.45
2023-05-23T00:29:08.574Z,9.41
2023-05-23T00:30:05.460Z,9.39
2023-05-23T00:31:02.075Z,9.26
2023-05-23T00:31:58.659Z,9.34
2023-05-23T00:32:55.215Z,9.39
2023-05-23T00:33:51.773Z,9.40
2023-05-23T00:34:48.386Z,9.42
2023-05-23T00:35:44.945Z,9.46
2023-05-23T00:36:43.679Z,9.38
2023-05-23T00:37:40.608Z,9.44
2023-05-23T00:38:37.172Z,9.23
2023-05-23T00:39:34.387Z,9.20
2023-05-23T00:40:30.909Z,9.18
2023-05-23T00:41:30.598Z,9.21
2023-05-23T00:42:27.185Z,9.23
2023-05-23T00:43:23.900Z,9.05
2023-05-23T00:44:21.902Z,9.03
2023-05-23T00:45:19.131Z,9.08
2023-05-23T00:46:16.483Z,9.09
2023-05-23T00:47:13.997Z,9.18
2023-05-23T00:48:11.989Z,9.22
2023-05-23T00:49:08.568Z,9.13
2023-05-23T00:50:06.258Z,9.17
2023-05-23T00:51:02.729Z,9.18
2023-05-23T00:51:59.480Z,9.23
2023-05-23T00:52:57.470Z,9.14
2023-05-23T00:53:54.651Z,9.10
2023-05-23T00:54:51.147Z,9.14
2023-05-23T00:55:47.748Z,9.00
2023-05-23T00:56:44.625Z,8.98
2023-05-23T00:57:41.723Z,9.13
2023-05-23T00:58:38.558Z,9.18
2023-05-23T00:59:36.233Z,9.02
2023-05-23T01:00:34.211Z,8.95
2023-05-23T01:01:30.892Z,8.98
2023-05-23T01:02:28.160Z,8.93
2023-05-23T01:03:28.792Z,8.99
2023-05-23T01:04:27.089Z,9.08
2023-05-23T01:05:25.097Z,9.19
2023-05-23T01:06:21.808Z,9.14
2023-05-23T01:07:18.358Z,9.10
2023-05-23T01:08:16.039Z,9.12
2023-05-23T01:09:16.910Z,9.18
2023-05-23T01:11:33.164Z,8.98
2023-05-23T01:12:34.515Z,9.08
2023-05-23T01:13:47.445Z,8.97
2023-05-23T01:15:02.657Z,8.96
2023-05-23T01:16:06.435Z,9.02
2023-05-23T01:17:16.248Z,9.02
2023-05-23T01:18:30.566Z,8.96
2023-05-23T01:19:40.878Z,8.94
2023-05-23T01:20:45.172Z,8.98
2023-05-23T01:21:43.456Z,9.04
2023-05-23T01:22:44.286Z,9.02
2023-05-23T01:24:05.055Z,8.98
2023-05-23T01:25:11.539Z,9.00
2023-05-23T01:26:14.113Z,8.99
2023-05-23T01:27:30.117Z,9.01
2023-05-23T01:28:32.107Z,8.97
2023-05-23T01:29:32.219Z,9.01
2023-05-23T01:30:31.453Z,8.86
2023-05-23T01:31:29.931Z,8.85
2023-05-23T01:32:27.349Z,9.05
2023-05-23T01:33:25.449Z,9.07
2023-05-23T01:34:22.304Z,9.06
2023-05-23T01:35:22.469Z,9.04
2023-05-23T01:36:19.209Z,8.99
2023-05-23T01:37:18.744Z,8.81
2023-05-23T01:38:15.383Z,8.95
2023-05-23T01:39:12.493Z,8.99
2023-05-23T01:40:09.323Z,8.95
2023-05-23T01:41:05.996Z,8.88
2023-05-23T01:42:03.032Z,8.88
2023-05-23T01:42:59.697Z,8.83
2023-05-23T01:43:56.371Z,8.86
2023-05-23T01:44:52.964Z,8.88
2023-05-23T01:45:49.837Z,8.92
2023-05-23T01:46:46.970Z,8.97
2023-05-23T01:47:44.095Z,8.93
2023-05-23T01:48:41.000Z,8.94
2023-05-23T01:49:38.252Z,8.81
2023-05-23T01:50:35.065Z,8.79
2023-05-23T01:51:31.644Z,8.91
2023-05-23T01:52:28.691Z,8.78
2023-05-23T01:53:25.605Z,8.65
2023-05-23T01:54:22.331Z,8.69
2023-05-23T01:55:22.766Z,8.63
2023-05-23T01:56:20.307Z,8.73
2023-05-23T01:57:17.506Z,8.68
2023-05-23T01:58:14.204Z,8.73
2023-05-23T01:59:11.148Z,8.71
2023-05-23T02:00:08.329Z,8.76
2023-05-23T02:01:04.911Z,8.61
2023-05-23T02:02:01.548Z,8.60
2023-05-23T02:02:58.361Z,8.68
2023-05-23T02:03:55.710Z,8.73
2023-05-23T02:04:54.060Z,8.70
2023-05-23T02:05:50.704Z,8.67
2023-05-23T02:06:47.535Z,8.60
2023-05-23T02:07:44.038Z,8.57
2023-05-23T02:08:40.752Z,8.52
2023-05-23T02:09:37.416Z,8.57
2023-05-23T02:10:34.221Z,8.68
2023-05-23T02:11:30.801Z,8.62
2023-05-23T02:12:27.410Z,8.45
2023-05-23T02:13:23.912Z,8.59
2023-05-23T02:14:21.080Z,8.78
2023-05-23T02:15:17.635Z,8.87
2023-05-23T02:16:14.114Z,8.88
2023-05-23T02:17:10.724Z,8.95
2023-05-23T02:18:07.327Z,8.63
2023-05-23T02:19:04.264Z,8.63
2023-05-23T02:20:00.887Z,8.54
2023-05-23T02:20:57.431Z,8.55
2023-05-23T02:21:54.005Z,8.57
2023-05-23T02:22:50.688Z,8.58
2023-05-23T02:23:47.183Z,8.42
2023-05-23T02:24:43.708Z,8.29
2023-05-23T02:25:40.457Z,8.26
2023-05-23T02:26:37.259Z,8.37
2023-05-23T02:27:33.742Z,8.36
2023-05-23T02:28:30.389Z,8.39
2023-05-23T02:29:26.906Z,8.45
2023-05-23T02:30:23.467Z,8.42
2023-05-23T02:31:20.082Z,8.36
2023-05-23T02:32:16.560Z,8.33
2023-05-23T02:33:13.196Z,8.53
2023-05-23T02:34:09.903Z,8.48
2023-05-23T02:35:06.733Z,8.52
2023-05-23T02:36:03.605Z,8.42
2023-05-23T02:37:00.255Z,8.52
2023-05-23T02:37:56.793Z,8.41
2023-05-23T02:38:53.362Z,8.46
2023-05-23T02:39:49.986Z,8.43
2023-05-23T02:40:46.658Z,8.48
2023-05-23T02:41:43.361Z,8.44
2023-05-23T02:42:39.895Z,8.41
2023-05-23T02:43:36.392Z,8.44
2023-05-23T02:44:32.912Z,8.42
2023-05-23T02:45:29.464Z,8.53
2023-05-23T02:46:26.173Z,8.63
2023-05-23T02:47:22.889Z,8.60
2023-05-23T02:48:19.480Z,8.55
2023-05-23T02:49:16.072Z,8.62
2023-05-23T02:50:12.704Z,8.67
2023-05-23T02:51:09.254Z,8.61
2023-05-23T02:52:05.805Z,8.65
2023-05-23T02:53:02.345Z,8.63
2023-05-23T02:53:59.144Z,8.58
2023-05-23T02:54:55.679Z,8.43
2023-05-23T02:55:52.200Z,8.46
2023-05-23T02:56:50.701Z,8.45
2023-05-23T02:57:47.290Z,8.49
2023-05-23T02:58:43.847Z,8.57
2023-05-23T02:59:41.200Z,8.44
2023-05-23T03:00:38.573Z,8.47
2023-05-23T03:01:35.284Z,8.63
2023-05-23T03:02:32.056Z,8.52
2023-05-23T03:03:31.779Z,8.60
2023-05-23T03:04:29.639Z,8.64
2023-05-23T03:05:26.131Z,8.64
2023-05-23T03:06:22.923Z,8.67
2023-05-23T03:07:27.562Z,8.56
2023-05-23T03:08:25.224Z,8.64
2023-05-23T03:09:21.868Z,8.66
2023-05-23T03:10:19.023Z,8.60
2023-05-23T03:11:16.434Z,8.46
2023-05-23T03:12:12.942Z,8.49
2023-05-23T03:13:09.427Z,8.50
2023-05-23T03:14:06.002Z,8.58
2023-05-23T03:15:02.518Z,8.79
2023-05-23T03:15:59.083Z,8.87
2023-05-23T03:16:55.751Z,8.70
2023-05-23T03:17:52.282Z,8.63
2023-05-23T03:18:48.829Z,8.72
2023-05-23T03:19:45.335Z,8.85
2023-05-23T03:20:42.339Z,8.80
2023-05-23T03:21:38.881Z,8.80
2023-05-23T03:22:35.883Z,8.79
2023-05-23T03:23:32.349Z,8.89
2023-05-23T03:24:28.800Z,8.99
2023-05-23T03:25:26.070Z,8.95
2023-05-23T03:26:22.850Z,9.02
2023-05-23T03:27:19.325Z,9.15
2023-05-23T03:28:15.814Z,9.19
2023-05-23T03:29:12.483Z,9.14
2023-05-23T03:30:09.325Z,9.16
2023-05-23T03:31:05.942Z,9.17
2023-05-23T03:32:02.512Z,9.19
2023-05-23T03:32:59.179Z,9.33
2023-05-23T03:33:55.861Z,9.48
2023-05-23T03:34:52.668Z,9.60
2023-05-23T03:35:49.165Z,9.66
2023-05-23T03:36:45.700Z,9.69
2023-05-23T03:37:42.263Z,9.65
2023-05-23T03:38:38.783Z,9.69
2023-05-23T03:39:36.379Z,9.77
2023-05-23T03:40:33.852Z,9.76
2023-05-23T03:41:30.404Z,9.70
2023-05-23T03:42:28.200Z,9.47
2023-05-23T03:43:24.684Z,9.45
2023-05-23T03:44:21.326Z,9.44
2023-05-23T03:45:18.320Z,9.28
2023-05-23T03:46:15.517Z,9.25
2023-05-23T03:47:12.187Z,9.27
2023-05-23T03:48:08.865Z,9.16
2023-05-23T03:49:05.360Z,9.08
2023-05-23T03:50:01.896Z,9.18
2023-05-23T03:51:01.438Z,9.32
2023-05-23T03:51:58.278Z,9.46
2023-05-23T03:52:54.771Z,9.68
2023-05-23T03:53:51.224Z,9.75
2023-05-23T03:54:47.702Z,9.75
2023-05-23T03:55:44.247Z,9.76
2023-05-23T03:56:40.731Z,9.72
2023-05-23T03:57:37.284Z,9.67
2023-05-23T03:58:33.814Z,9.80
2023-05-23T03:59:30.593Z,9.68
2023-05-23T04:00:27.136Z,9.61
2023-05-23T04:01:23.726Z,9.60
2023-05-23T04:02:20.598Z,9.86
2023-05-23T04:03:17.699Z,10.00
2023-05-23T04:04:14.457Z,9.98
2023-05-23T04:05:10.961Z,10.01
2023-05-23T04:06:07.658Z,10.10
2023-05-23T04:07:05.674Z,10.22
2023-05-23T04:08:02.232Z,10.21
2023-05-23T04:08:59.723Z,10.25
2023-05-23T04:09:56.190Z,10.29
2023-05-23T04:10:52.663Z,10.15
2023-05-23T04:11:49.185Z,10.26
2023-05-23T04:12:45.820Z,10.44
2023-05-23T04:13:42.850Z,10.54
2023-05-23T04:14:39.596Z,10.44
2023-05-23T04:15:36.328Z,10.44
2023-05-23T04:16:33.686Z,10.57
2023-05-23T04:17:31.356Z,10.67
2023-05-23T04:18:28.783Z,10.82
2023-05-23T04:19:25.316Z,10.84
2023-05-23T04:20:22.039Z,10.88
2023-05-23T04:21:18.548Z,10.67
2023-05-23T04:22:15.122Z,9.96
2023-05-23T04:23:11.668Z,9.87
2023-05-23T04:24:08.425Z,9.91
2023-05-23T04:25:05.150Z,10.26
2023-05-23T04:26:01.709Z,10.60
2023-05-23T04:26:59.439Z,10.68
2023-05-23T04:27:56.139Z,10.68
2023-05-23T04:28:54.342Z,10.73
2023-05-23T04:29:52.491Z,10.86
2023-05-23T04:30:49.598Z,10.95
2023-05-23T04:31:46.394Z,10.96
2023-05-23T04:32:43.434Z,10.63
2023-05-23T04:33:40.000Z,10.89
2023-05-23T04:34:37.991Z,11.02
2023-05-23T04:35:39.104Z,11.04
2023-05-23T04:36:38.264Z,11.08
2023-05-23T04:37:35.336Z,11.04
2023-05-23T04:38:32.175Z,11.03
2023-05-23T04:39:32.482Z,11.10
2023-05-23T04:40:29.226Z,11.12
2023-05-23T04:41:25.801Z,11.26
2023-05-23T04:42:24.757Z,11.28
2023-05-23T04:43:22.012Z,11.19
2023-05-23T04:44:18.569Z,11.22
2023-05-23T04:45:15.133Z,11.27
2023-05-23T04:46:13.962Z,11.14
2023-05-23T04:47:11.882Z,11.00
2023-05-23T04:48:08.525Z,11.00
2023-05-23T04:49:05.178Z,10.84
2023-05-23T04:50:02.251Z,10.96
2023-05-23T04:51:02.257Z,11.17
2023-05-23T04:51:58.882Z,11.00
2023-05-23T04:52:56.364Z,10.93
2023-05-23T04:53:53.833Z,10.90
2023-05-23T04:54:50.587Z,10.88
2023-05-23T04:55:47.363Z,10.95
2023-05-23T04:56:43.971Z,11.08
2023-05-23T04:57:40.586Z,11.34
2023-05-23T04:58:37.155Z,11.19
2023-05-23T04:59:33.707Z,11.07
2023-05-23T05:00:30.423Z,11.27
2023-05-23T05:01:28.218Z,11.26
2023-05-23T05:02:24.823Z,11.17
2023-05-23T05:03:21.392Z,11.14
2023-05-23T05:04:18.074Z,11.25
2023-05-23T05:05:14.773Z,11.26
2023-05-23T05:06:11.379Z,11.26
2023-05-23T05:07:08.031Z,11.43
2023-05-23T05:08:04.593Z,11.28
2023-05-23T05:09:01.189Z,11.34
2023-05-23T05:10:00.043Z,11.44
2023-05-23T05:10:57.530Z,11.55
2023-05-23T05:11:54.119Z,11.35
2023-05-23T05:12:50.625Z,11.21
2023-05-23T05:13:47.210Z,11.28
2023-05-23T05:14:43.724Z,11.08
2023-05-23T05:15:40.248Z,11.26
2023-05-23T05:16:38.003Z,11.68
2023-05-23T05:17:37.055Z,11.58
2023-05-23T05:18:33.735Z,11.60
2023-05-23T05:19:30.366Z,11.59
2023-05-23T05:20:26.969Z,11.51
2023-05-23T05:21:23.518Z,11.40
2023-05-23T05:22:20.076Z,11.41
2023-05-23T05:23:16.679Z,11.32
2023-05-23T05:24:13.296Z,11.32
2023-05-23T05:25:10.340Z,11.34
2023-05-23T05:26:06.850Z,11.32
2023-05-23T05:27:03.503Z,11.29
2023-05-23T05:28:03.192Z,11.39
2023-05-23T05:28:59.871Z,11.40
2023-05-23T05:29:58.753Z,11.44
2023-05-23T05:30:55.253Z,11.38
2023-05-23T05:31:52.200Z,11.58
2023-05-23T05:32:49.102Z,11.72
2023-05-23T05:33:46.088Z,11.78
2023-05-23T05:34:43.485Z,11.97
2023-05-23T05:35:40.211Z,11.99
2023-05-23T05:36:37.002Z,12.06
2023-05-23T05:37:33.658Z,11.88
2023-05-23T05:38:30.762Z,12.03
2023-05-23T05:39:27.387Z,12.04
2023-05-23T05:40:23.904Z,12.14
2023-05-23T05:41:20.587Z,11.94
2023-05-23T05:42:17.082Z,11.89
2023-05-23T05:43:13.660Z,11.90
2023-05-23T05:44:10.278Z,12.06
2023-05-23T05:45:07.127Z,12.22
2023-05-23T05:46:03.738Z,12.47
2023-05-23T05:47:00.319Z,12.56
2023-05-23T05:47:59.419Z,12.79
2023-05-23T05:48:55.955Z,12.83
2023-05-23T05:49:52.473Z,12.62
2023-05-23T05:50:49.100Z,12.65
2023-05-23T05:51:45.714Z,12.54
2023-05-23T05:52:42.560Z,12.37
2023-05-23T05:53:39.133Z,12.33
2023-05-23T05:54:36.183Z,12.33
2023-05-23T05:55:32.703Z,12.37
2023-05-23T05:56:29.268Z,12.31
2023-05-23T05:57:25.895Z,12.51
2023-05-23T05:58:22.503Z,12.56
2023-05-23T05:59:19.013Z,12.94
2023-05-23T06:00:15.724Z,12.99
2023-05-23T06:01:12.593Z,12.69
2023-05-23T06:02:09.355Z,12.73
2023-05-23T06:03:06.668Z,12.66
2023-05-23T06:04:03.482Z,12.64
2023-05-23T06:05:00.194Z,12.82
2023-05-23T06:05:57.421Z,13.17
2023-05-23T06:06:53.990Z,13.25
2023-05-23T06:07:50.578Z,13.20
2023-05-23T06:08:47.160Z,13.08
2023-05-23T06:09:43.692Z,13.33
2023-05-23T06:10:40.401Z,13.21
2023-05-23T06:11:41.097Z,13.29
2023-05-23T06:12:37.926Z,13.07
2023-05-23T06:13:34.532Z,13.11
2023-05-23T06:14:31.103Z,13.38
2023-05-23T06:15:28.007Z,13.31
2023-05-23T06:16:24.608Z,13.36
2023-05-23T06:17:21.539Z,13.53
2023-05-23T06:18:18.320Z,13.63
2023-05-23T06:19:14.978Z,13.36
2023-05-23T06:20:11.971Z,13.24
2023-05-23T06:21:09.406Z,13.65
2023-05-23T06:22:06.056Z,13.49
2023-05-23T06:23:05.575Z,13.44
2023-05-23T06:24:02.230Z,13.64
2023-05-23T06:24:58.733Z,13.56
2023-05-23T06:25:55.404Z,13.59
2023-05-23T06:26:52.030Z,13.71
2023-05-23T06:27:48.567Z,13.96
2023-05-23T06:28:45.135Z,14.18
2023-05-23T06:29:41.747Z,14.09
2023-05-23T06:30:39.221Z,13.93
2023-05-23T06:31:36.081Z,13.85
2023-05-23T06:32:32.682Z,13.71
2023-05-23T06:33:29.367Z,13.94
2023-05-23T06:34:26.098Z,14.01
2023-05-23T06:35:22.701Z,14.15
2023-05-23T06:36:19.250Z,14.28
2023-05-23T06:37:16.611Z,14.00
2023-05-23T06:38:13.608Z,13.82
2023-05-23T06:39:10.980Z,13.48
2023-05-23T06:40:07.734Z,13.55
2023-05-23T06:41:07.148Z,13.79
2023-05-23T06:42:04.485Z,13.97
2023-05-23T06:43:01.112Z,13.81
2023-05-23T06:43:59.890Z,13.41
2023-05-23T06:44:56.851Z,13.98
2023-05-23T06:45:53.903Z,13.90
2023-05-23T06:46:50.518Z,13.96
2023-05-23T06:47:48.335Z,13.61
2023-05-23T06:48:44.917Z,13.53
2023-05-23T06:49:41.444Z,13.56
2023-05-23T06:50:38.049Z,13.57
2023-05-23T06:51:34.697Z,12.76
2023-05-23T06:52:31.318Z,12.94
2023-05-23T06:53:27.888Z,13.01
2023-05-23T06:54:24.376Z,13.08
2023-05-23T06:55:20.965Z,12.84
2023-05-23T06:56:17.455Z,12.80
2023-05-23T06:57:14.229Z,12.56
2023-05-23T06:58:10.745Z,12.88
2023-05-23T06:59:07.302Z,13.26
2023-05-23T07:00:04.059Z,13.56
2023-05-23T07:01:00.809Z,13.90
2023-05-23T07:01:57.407Z,13.93
2023-05-23T07:02:53.911Z,14.05
2023-05-23T07:03:50.536Z,13.93
2023-05-23T07:04:47.078Z,13.61
2023-05-23T07:05:43.964Z,13.81
2023-05-23T07:06:40.618Z,14.00
2023-05-23T07:07:37.313Z,14.10
2023-05-23T07:08:33.815Z,14.06
2023-05-23T07:09:30.337Z,13.98
2023-05-23T07:10:26.941Z,13.77
2023-05-23T07:11:23.499Z,14.09
2023-05-23T07:12:20.076Z,14.24
2023-05-23T07:13:16.578Z,14.27
2023-05-23T07:14:13.104Z,14.21
2023-05-23T07:15:10.408Z,14.37
2023-05-23T07:16:06.939Z,14.34
2023-05-23T07:17:03.822Z,14.45
2023-05-23T07:18:00.552Z,14.71
2023-05-23T07:18:59.434Z,14.19
2023-05-23T07:19:56.249Z,14.34
2023-05-23T07:20:52.839Z,14.24
2023-05-23T07:21:49.370Z,14.10
2023-05-23T07:22:45.946Z,14.24
2023-05-23T07:23:42.543Z,14.44
2023-05-23T07:24:39.080Z,14.91
2023-05-23T07:25:35.628Z,15.26
2023-05-23T07:26:32.219Z,15.62
2023-05-23T07:27:28.900Z,15.84
2023-05-23T07:28:25.716Z,16.09
2023-05-23T07:29:22.366Z,16.27
2023-05-23T07:30:20.409Z,16.58
2023-05-23T07:31:17.090Z,16.49
2023-05-23T07:32:13.716Z,16.79
2023-05-23T07:33:10.523Z,16.52
2023-05-23T07:34:07.217Z,15.43
2023-05-23T07:35:03.991Z,15.21
2023-05-23T07:36:00.896Z,15.27
2023-05-23T07:36:57.469Z,14.94
2023-05-23T07:37:54.259Z,14.81
2023-05-23T07:38:50.831Z,15.03
2023-05-23T07:39:47.338Z,14.98
2023-05-23T07:40:45.361Z,15.06
2023-05-23T07:41:44.769Z,15.00
2023-05-23T07:42:41.350Z,14.79
2023-05-23T07:43:37.963Z,14.84
2023-05-23T07:44:34.497Z,14.97
2023-05-23T07:45:31.018Z,14.66
2023-05-23T07:46:27.598Z,14.79
2023-05-23T07:47:24.460Z,14.93
2023-05-23T07:48:21.408Z,14.79
2023-05-23T07:49:17.913Z,15.21
2023-05-23T07:50:14.533Z,15.18
2023-05-23T07:51:11.103Z,14.62
2023-05-23T07:52:07.636Z,14.50
2023-05-23T07:53:04.201Z,14.46
2023-05-23T07:54:00.743Z,14.69
2023-05-23T07:54:57.336Z,14.79
2023-05-23T07:55:53.835Z,14.58
2023-05-23T07:56:50.322Z,14.41
2023-05-23T07:57:46.888Z,14.74
2023-05-23T07:58:43.412Z,14.77
2023-05-23T07:59:40.004Z,14.48
2023-05-23T08:00:37.115Z,14.36
2023-05-23T08:01:33.692Z,14.25
2023-05-23T08:02:30.285Z,14.20
2023-05-23T08:03:26.880Z,14.38
2023-05-23T08:04:23.652Z,14.43
2023-05-23T08:05:22.843Z,14.68
2023-05-23T08:06:19.377Z,14.58
2023-05-23T08:07:18.636Z,14.69
2023-05-23T08:08:16.539Z,14.55
2023-05-23T08:09:13.410Z,14.64
2023-05-23T08:10:10.007Z,14.87
2023-05-23T08:11:06.535Z,15.16
2023-05-23T08:12:03.142Z,15.27
2023-05-23T08:13:01.058Z,14.65
2023-05-23T08:13:59.454Z,14.83
2023-05-23T08:14:57.256Z,15.08
2023-05-23T08:15:54.076Z,15.24
2023-05-23T08:16:50.839Z,15.07
2023-05-23T08:17:47.529Z,15.13
2023-05-23T08:18:44.100Z,15.08
2023-05-23T08:19:40.672Z,14.66
2023-05-23T08:20:37.212Z,14.48
2023-05-23T08:21:33.888Z,14.67
2023-05-23T08:22:30.621Z,15.28
2023-05-23T08:23:27.263Z,15.16
2023-05-23T08:24:23.879Z,15.60
2023-05-23T08:25:20.391Z,15.94
2023-05-23T08:26:17.212Z,15.86
2023-05-23T08:27:13.771Z,16.02
2023-05-23T08:28:10.327Z,15.73
2023-05-23T08:29:06.932Z,15.44
2023-05-23T08:30:04.915Z,15.26
2023-05-23T08:31:01.570Z,15.10
2023-05-23T08:31:58.176Z,14.87
2023-05-23T08:32:55.653Z,14.91
2023-05-23T08:33:52.457Z,14.87
2023-05-23T08:34:49.525Z,15.20
2023-05-23T08:35:46.771Z,15.27
2023-05-23T08:36:43.291Z,15.21
2023-05-23T08:37:39.935Z,15.03
2023-05-23T08:38:36.612Z,14.82
2023-05-23T08:39:33.231Z,14.97
2023-05-23T08:40:30.809Z,15.26
2023-05-23T08:41:27.492Z,15.63
2023-05-23T08:42:24.017Z,16.12
2023-05-23T08:43:20.739Z,16.06
2023-05-23T08:44:17.384Z,15.99
2023-05-23T08:45:14.019Z,16.00
2023-05-23T08:46:10.669Z,15.54
2023-05-23T08:47:08.431Z,15.99
2023-05-23T08:48:08.767Z,16.16
2023-05-23T08:49:05.767Z,16.08
2023-05-23T08:50:02.730Z,16.02
2023-05-23T08:50:59.600Z,16.05
2023-05-23T08:51:57.852Z,16.05
2023-05-23T08:52:59.258Z,16.08
2023-05-23T08:53:59.663Z,15.97
2023-05-23T08:54:56.994Z,15.86
2023-05-23T08:55:55.711Z,15.93
2023-05-23T08:56:52.356Z,15.95
2023-05-23T08:57:49.202Z,16.13
2023-05-23T08:58:48.158Z,16.69
2023-05-23T08:59:45.024Z,17.05
2023-05-23T09:00:42.762Z,17.46
2023-05-23T09:01:40.201Z,17.87
2023-05-23T09:02:37.796Z,18.33
2023-05-23T09:03:37.705Z,18.46
2023-05-23T09:04:34.312Z,18.45
2023-05-23T09:05:31.023Z,18.58
2023-05-23T09:06:27.666Z,18.50
2023-05-23T09:07:24.142Z,18.15
2023-05-23T09:08:21.108Z,18.03
2023-05-23T09:09:17.745Z,17.93
2023-05-23T09:10:14.784Z,17.94
2023-05-23T09:11:13.092Z,18.12
2023-05-23T09:12:10.409Z,17.97
2023-05-23T09:13:07.729Z,18.01
2023-05-23T09:14:08.338Z,18.17
2023-05-23T09:15:05.783Z,18.31
2023-05-23T09:16:03.630Z,18.57
2023-05-23T09:17:03.207Z,18.92
2023-05-23T09:18:04.280Z,19.09
2023-05-23T09:19:09.907Z,19.03
2023-05-23T09:20:14.768Z,19.06
2023-05-23T09:21:12.352Z,19.31
2023-05-23T09:22:08.859Z,19.28
2023-05-23T09:23:05.930Z,19.23
2023-05-23T09:24:02.476Z,19.21
2023-05-23T09:25:00.445Z,18.98
2023-05-23T09:25:57.075Z,19.25
2023-05-23T09:26:53.726Z,19.68
2023-05-23T09:27:52.241Z,19.39
2023-05-23T09:28:48.871Z,19.13
2023-05-23T09:29:47.434Z,19.35
2023-05-23T09:30:43.957Z,19.57
2023-05-23T09:31:40.521Z,19.66
2023-05-23T09:32:37.282Z,19.81
2023-05-23T09:33:39.006Z,19.29
2023-05-23T09:34:35.620Z,19.42
2023-05-23T09:35:32.402Z,19.13
2023-05-23T09:36:30.626Z,19.62
2023-05-23T09:37:31.325Z,19.95
2023-05-23T09:38:28.476Z,21.03
2023-05-23T09:39:25.015Z,20.78
2023-05-23T09:40:21.633Z,20.49
2023-05-23T09:41:20.438Z,20.78
2023-05-23T09:42:23.347Z,20.50
2023-05-23T09:43:22.024Z,20.51
2023-05-23T09:44:23.195Z,20.05
2023-05-23T09:45:20.017Z,19.94
2023-05-23T09:46:16.663Z,20.10
2023-05-23T09:47:13.244Z,20.14
2023-05-23T09:48:12.697Z,20.19
2023-05-23T09:49:15.654Z,20.42
2023-05-23T09:50:13.050Z,19.75
2023-05-23T09:51:10.132Z,19.78
2023-05-23T09:52:06.652Z,19.82
2023-05-23T09:53:03.233Z,20.36
2023-05-23T09:53:59.768Z,20.42
2023-05-23T09:54:58.951Z,20.65
2023-05-23T09:55:56.209Z,20.50
2023-05-23T09:56:53.815Z,20.35
2023-05-23T09:57:53.305Z,20.21
2023-05-23T09:58:50.846Z,20.29
2023-05-23T09:59:56.744Z,20.45
2023-05-23T10:00:54.417Z,20.61
2023-05-23T10:01:51.945Z,19.92
2023-05-23T10:03:00.398Z,20.04
2023-05-23T10:04:00.149Z,20.35
2023-05-23T10:04:57.325Z,20.06
2023-05-23T10:05:57.041Z,20.02
2023-05-23T10:06:57.055Z,19.68
2023-05-23T10:07:53.779Z,19.67
2023-05-23T10:08:52.621Z,19.72
2023-05-23T10:09:56.369Z,19.86
2023-05-23T10:10:56.883Z,19.72
2023-05-23T10:11:53.552Z,19.90
2023-05-23T10:12:56.155Z,19.40
2023-05-23T10:13:53.480Z,19.41
2023-05-23T10:14:53.468Z,19.39
2023-05-23T10:15:50.122Z,19.36
2023-05-23T10:17:01.685Z,19.00
2023-05-23T10:18:04.332Z,19.83
2023-05-23T10:19:07.566Z,20.52
2023-05-23T10:20:09.852Z,20.62
2023-05-23T10:21:09.669Z,20.55
2023-05-23T10:22:08.762Z,21.13
2023-05-23T10:23:05.962Z,20.65
2023-05-23T10:24:03.972Z,20.75
2023-05-23T10:25:00.503Z,21.02
2023-05-23T10:25:57.041Z,21.09
2023-05-23T10:26:54.689Z,22.03
2023-05-23T10:27:55.096Z,22.23
2023-05-23T10:28:53.212Z,22.36
2023-05-23T10:29:49.831Z,21.96
2023-05-23T10:30:46.531Z,21.16
2023-05-23T10:31:44.075Z,21.70
2023-05-23T10:32:41.398Z,21.77
2023-05-23T10:33:42.012Z,20.76
2023-05-23T10:34:54.564Z,20.42
2023-05-23T10:35:56.844Z,21.48
2023-05-23T10:36:53.393Z,21.99
2023-05-23T10:37:59.599Z,21.92
2023-05-23T10:39:00.249Z,21.98
2023-05-23T10:40:02.459Z,22.41
2023-05-23T10:41:13.779Z,23.50
2023-05-23T10:42:13.363Z,23.01
2023-05-23T10:43:28.425Z,22.42
2023-05-23T10:44:28.073Z,22.89
2023-05-23T10:45:24.720Z,22.62
2023-05-23T10:46:24.085Z,22.81
2023-05-23T10:47:27.924Z,22.79
2023-05-23T10:48:35.344Z,22.66
2023-05-23T10:49:39.387Z,22.04
2023-05-23T10:50:37.331Z,22.59
2023-05-23T10:51:39.024Z,22.56
2023-05-23T10:52:40.263Z,22.56
2023-05-23T10:53:37.737Z,21.99
2023-05-23T10:54:44.568Z,21.95
2023-05-23T10:55:41.137Z,21.38
2023-05-23T10:56:37.881Z,21.26
2023-05-23T10:57:34.557Z,20.70
2023-05-23T10:58:32.031Z,20.74
2023-05-23T10:59:28.574Z,20.50
2023-05-23T11:00:25.233Z,20.12
2023-05-23T11:01:22.107Z,19.95
2023-05-23T11:02:19.919Z,19.89
2023-05-23T11:03:17.286Z,19.78
2023-05-23T11:04:13.951Z,19.77
2023-05-23T11:05:22.827Z,19.73
2023-05-23T11:06:38.651Z,20.11
2023-05-23T11:07:35.176Z,19.73
2023-05-23T11:08:48.254Z,19.35
2023-05-23T11:10:05.092Z,19.16
2023-05-23T11:11:02.750Z,19.56
2023-05-23T11:12:04.421Z,19.93
2023-05-23T11:13:11.052Z,20.07
2023-05-23T11:14:07.623Z,19.51
2023-05-23T11:15:20.482Z,19.89
2023-05-23T11:16:26.589Z,19.67
2023-05-23T11:17:33.377Z,20.15
2023-05-23T11:18:31.121Z,20.76
2023-05-23T11:19:29.036Z,20.54
2023-05-23T11:20:28.334Z,20.59
2023-05-23T11:21:24.998Z,20.78
2023-05-23T11:22:22.096Z,21.18
2023-05-23T11:23:18.667Z,21.82
2023-05-23T11:24:15.138Z,22.13
2023-05-23T11:25:11.838Z,22.14
2023-05-23T11:26:28.383Z,22.17
2023-05-23T11:27:32.527Z,22.62
2023-05-23T11:28:29.033Z,22.76
2023-05-23T11:29:26.632Z,21.81
2023-05-23T11:30:23.124Z,21.57
2023-05-23T11:31:19.714Z,21.84
2023-05-23T11:32:17.801Z,22.75
2023-05-23T11:33:15.297Z,23.17
2023-05-23T11:34:12.213Z,23.67
2023-05-23T11:35:09.919Z,23.41
2023-05-23T11:36:07.239Z,23.25
2023-05-23T11:37:04.029Z,23.25
2023-05-23T11:38:02.190Z,22.50
2023-05-23T11:39:02.854Z,21.71
2023-05-23T11:39:59.603Z,22.04
2023-05-23T11:40:56.345Z,22.03
2023-05-23T11:41:59.730Z,22.35
2023-05-23T11:42:59.154Z,21.90
2023-05-23T11:43:57.820Z,22.18
2023-05-23T11:44:54.766Z,22.00
2023-05-23T11:45:51.484Z,21.46
2023-05-23T11:46:59.101Z,21.53
2023-05-23T11:47:56.125Z,21.11
2023-05-23T11:48:54.680Z,20.55
2023-05-23T11:49:51.496Z,21.04
2023-05-23T11:50:52.286Z,21.77
2023-05-23T11:51:48.845Z,22.46
2023-05-23T11:52:51.288Z,22.99
2023-05-23T11:53:47.976Z,23.10
2023-05-23T11:54:44.496Z,22.87
2023-05-23T11:55:41.898Z,23.04
2023-05-23T11:56:41.241Z,22.97
2023-05-23T11:57:41.234Z,22.59
2023-05-23T11:58:39.252Z,21.71
2023-05-23T11:59:35.901Z,21.10
2023-05-23T12:00:32.360Z,20.94
2023-05-23T12:01:31.403Z,20.96
2023-05-23T12:02:28.502Z,21.18
2023-05-23T12:03:25.317Z,21.41
2023-05-23T12:04:22.147Z,21.11
2023-05-23T12:05:18.774Z,20.83
2023-05-23T12:06:16.393Z,21.72
2023-05-23T12:07:12.874Z,22.09
2023-05-23T12:08:11.041Z,22.12
2023-05-23T12:09:08.311Z,22.10
2023-05-23T12:10:05.014Z,22.07
2023-05-23T12:11:02.046Z,21.59
2023-05-23T12:11:58.594Z,21.89
2023-05-23T12:12:55.505Z,21.46
2023-05-23T12:13:52.518Z,21.55
2023-05-23T12:14:49.058Z,21.62
2023-05-23T12:15:46.721Z,21.33
2023-05-23T12:16:47.982Z,21.63
2023-05-23T12:17:48.183Z,21.50
2023-05-23T12:18:44.809Z,21.61
2023-05-23T12:19:45.983Z,21.12
2023-05-23T12:20:42.865Z,21.19
2023-05-23T12:21:43.780Z,21.29
2023-05-23T12:22:41.534Z,21.39
2023-05-23T12:23:39.654Z,21.04
2023-05-23T12:24:36.934Z,20.91
2023-05-23T12:25:42.838Z,21.05
2023-05-23T12:26:48.645Z,21.34
2023-05-23T12:27:45.194Z,21.93
2023-05-23T12:28:43.689Z,22.62
2023-05-23T12:29:40.215Z,22.80
2023-05-23T12:30:43.481Z,23.23
2023-05-23T12:31:40.429Z,22.97
2023-05-23T12:32:41.162Z,22.20
2023-05-23T12:33:43.824Z,22.73
2023-05-23T12:34:43.790Z,23.00